Flight Track Log - Related Links

Times and Time Zones

All times are in EDT time to prevent confusion due to time zone crossing. See the B-18725 flight status page for this flight to view local times or setup timezone preferences in your user account.

Time Position Orientation Groundspeed Altitude Reporting Facility
EDT Latitude Longitude Course Direction KTS MPH feet Rate Location/Type
Sun 12:11:47 PM 61.1930 -150.0100 346° North 155 178 400  Level FlightAware ADS-B
Sun 12:12:17 PM 61.2120 -150.0270 337° Northwest 165 190 1,300 1,950 Climbing FlightAware ADS-B
Sun 12:12:27 PM 61.2170 -150.0380 313° West 166 191 1,700 1,800 Climbing FlightAware ADS-B
Sun 12:12:57 PM 61.2350 -150.0720 318° Northwest 170 196 2,500 1,700 Climbing FlightAware ADS-B
Sun 12:13:27 PM 61.2520 -150.1060 316° Northwest 173 199 3,400 1,309 Climbing FlightAware ADS-B
Sun 12:13:52 PM 61.2680 -150.1370 317° Northwest 199 229 3,700 750 Climbing FlightAware ADS-B
Sun 12:14:07 PM 61.2800 -150.1480 336° Northwest 208 239 3,900 933 Climbing FlightAware ADS-B
Sun 12:14:37 PM 61.3070 -150.1200 26° Northeast 245 282 4,400 1,527 Climbing FlightAware ADS-B
Sun 12:15:02 PM 61.3170 -150.0620 70° East 274 315 5,300 2,618 Climbing FlightAware ADS-B
Sun 12:15:32 PM 61.3070 -149.9810 104° East 288 331 6,800 2,933 Climbing FlightAware ADS-B
Sun 12:15:47 PM 61.3010 -149.9400 107° East 289 333 7,500 2,700 Climbing FlightAware ADS-B
Sun 12:16:12 PM 61.2910 -149.8750 108° East 290 334 8,600 2,509 Climbing FlightAware ADS-B
Sun 12:16:42 PM 61.2790 -149.7950 107° East 296 341 9,800 1,886 Climbing FlightAware ADS-B
Sun 12:17:22 PM 61.2630 -149.6900 108° East 321 369 10,800 1,271 Climbing FlightAware ADS-B
Sun 12:18:07 PM 61.2440 -149.5440 105° East 366 421 11,600 1,200 Climbing FlightAware ADS-B
Sun 12:18:52 PM 61.2290 -149.4230 104° East 387 445 12,600 2,175 Climbing FlightAware ADS-B
Sun 12:19:27 PM 61.2060 -149.2570 106° East 398 458 14,500 3,000 Climbing FlightAware ADS-B
Sun 12:20:02 PM 61.1890 -149.1270 105° East 408 470 16,100 2,800 Climbing FlightAware ADS-B
Sun 12:20:42 PM 61.1680 -148.9710 106° East 421 484 18,000 1,958 Climbing FlightAware ADS-B
Sun 12:21:37 PM 61.1420 -148.7710 105° East 425 489 19,200 686 Climbing FlightAware ADS-B
Sun 12:22:27 PM 61.1200 -148.6040 105° East 425 489 19,200 2,965 Level FlightAware ADS-B
Sun 12:23:02 PM 61.0910 -148.4130 107° East 456 525 23,400 4,165 Climbing FlightAware ADS-B
Sun 12:23:52 PM 61.0610 -148.1950 106° East 468 539 25,100 1,895 Climbing FlightAware ADS-B
Sun 12:24:37 PM 61.0340 -148.0110 107° East 476 548 26,400 1,760 Climbing FlightAware ADS-B
Sun 12:25:07 PM 61.0140 -147.8720 106° East 481 554 27,300 1,120 Climbing FlightAware ADS-B
Sun 12:25:52 PM 60.9890 -147.6860 105° East 489 563 27,800 1,636 Climbing FlightAware ADS-B
Sun 12:26:57 PM 60.9420 -147.3800 107° East 501 577 30,300 1,500 Climbing FlightAware ADS-B
Sun 12:27:32 PM 60.9210 -147.2400 107° East 501 577 30,300 1,425 Level FlightAware ADS-B
Sun 12:28:17 PM 60.8870 -147.0170 107° East 507 583 32,200 1,267 Climbing FlightAware ADS-B
Sun 12:29:02 PM 60.8620 -146.8360 106° East 507 583 32,200 1,191 Level FlightAware ADS-B
Sun 12:29:42 PM 60.8260 -146.6190 109° East 33,800 1,750 Climbing FlightAware ADS-B
Sun 12:30:38 PM 60.7833 -146.3500 109° East 510 587 35,000 621 Climbing Anchorage Center
Sun 12:31:38 PM 60.7333 -146.0667 110° East 510 587 35,000  Level Anchorage Center
Sun 12:32:38 PM 60.6833 -145.7833 110° East 510 587 35,000  Level Anchorage Center
Sun 12:33:38 PM 60.6333 -145.5000 110° East 510 587 35,000  Level Anchorage Center
Sun 12:34:38 PM 60.6000 -145.2833 107° East 510 587 35,000  Level Anchorage Center
Sun 12:35:38 PM 60.5667 -145.0167 104° East 490 564 35,000  Level Anchorage Center
Sun 12:36:39 PM 60.5167 -144.7500 111° Southeast 510 587 35,000  Level Anchorage Center
Sun 12:37:39 PM 60.4667 -144.4667 110° East 510 587 35,000  Level Anchorage Center
Sun 12:38:39 PM 60.4167 -144.2000 111° Southeast 500 575 35,000  Level Anchorage Center
Sun 12:39:39 PM 60.3667 -143.9333 111° Southeast 510 587 35,000  Level Anchorage Center
Sun 12:40:39 PM 60.3167 -143.6667 111° Southeast 500 575 35,000  Level Anchorage Center
Sun 12:41:39 PM 60.2667 -143.4167 112° Southeast 500 575 35,000  Level Anchorage Center
Sun 12:42:39 PM 60.2167 -143.1333 109° East 510 587 35,000  Level Anchorage Center
Sun 12:43:39 PM 60.1667 -142.8667 111° Southeast 520 598 35,000  Level Anchorage Center
Sun 12:44:39 PM 60.1167 -142.6000 111° Southeast 510 587 35,000  Level Anchorage Center
Sun 12:45:39 PM 60.0667 -142.3333 110° East 510 587 35,000  Level Anchorage Center
Sun 12:46:40 PM 60.0167 -142.0667 110° East 510 587 35,000  Level Anchorage Center
Sun 12:47:40 PM 59.9667 -141.8000 110° East 510 587 35,000  Level Anchorage Center
Sun 12:48:40 PM 59.9000 -141.5333 116° Southeast 510 587 35,000  Level Anchorage Center
Sun 12:49:40 PM 59.8500 -141.2667 110° East 510 587 35,000  Level Anchorage Center
Sun 12:50:40 PM 59.8000 -141.0167 112° Southeast 510 587 35,000  Level Anchorage Center
Sun 12:51:40 PM 59.7500 -140.7500 110° East 510 587 35,000  Level Anchorage Center
Sun 12:52:40 PM 59.6833 -140.4833 116° Southeast 510 587 35,000  Level Anchorage Center
Sun 12:53:40 PM 59.6333 -140.2333 111° Southeast 510 587 35,000  Level Anchorage Center
Sun 12:54:40 PM 59.5833 -139.9667 110° East 520 598 35,000  Level Anchorage Center
Sun 12:55:40 PM 59.5167 -139.7167 118° Southeast 490 564 35,000  Level Anchorage Center
Sun 12:57:40 PM 59.4500 -139.1500 103° East 520 598 35,000  Level Anchorage Center
Sun 12:58:40 PM 59.4167 -138.8833 104° East 510 587 35,000  Level Anchorage Center
Sun 12:59:40 PM 59.3833 -138.6000 103° East 510 587 35,000  Level Anchorage Center
Sun 01:00:41 PM 59.3500 -138.3333 104° East 500 575 35,000  Level Anchorage Center
Sun 01:01:41 PM 59.3167 -138.0667 104° East 510 587 35,000  Level Anchorage Center
Sun 01:02:41 PM 59.2833 -137.7833 103° East 510 587 35,000  Level Anchorage Center
Sun 01:03:41 PM 59.2500 -137.5167 104° East 510 587 35,000  Level Anchorage Center
Sun 01:04:41 PM 59.2167 -137.2500 104° East 510 587 35,000  Level Anchorage Center
Sun 01:05:41 PM 59.1833 -136.9833 104° East 510 587 35,000  Level Anchorage Center
Sun 01:06:41 PM 59.1500 -136.7167 104° East 510 587 35,000  Level Anchorage Center
Sun 01:07:42 PM 59.1000 -136.4333 109° East 520 598 35,000  Level Anchorage Center
Sun 01:08:42 PM 59.0667 -136.1667 104° East 510 587 35,000  Level Anchorage Center
Sun 01:09:42 PM 59.0333 -135.9000 104° East 520 598 35,000  Level Anchorage Center
Sun 01:10:42 PM 59.0000 -135.6333 104° East 520 598 35,000  Level Anchorage Center
Sun 01:11:42 PM 58.9500 -135.3667 110° East 520 598 35,000  Level Anchorage Center
Sun 01:12:42 PM 58.9167 -135.1000 104° East 520 598 35,000  Level Anchorage Center
Sun 01:13:42 PM 58.8667 -134.8333 110° East 510 587 35,000  Level Anchorage Center
Sun 01:14:42 PM 58.8333 -134.5667 103° East 520 598 35,000  Level Anchorage Center
Sun 01:15:42 PM 58.7833 -134.3000 110° East 520 598 35,000  Level Anchorage Center
Sun 01:16:42 PM 58.7500 -134.0333 103° East 520 598 35,000  Level Anchorage Center
Sun 01:17:43 PM 58.7000 -133.7667 110° East 520 598 35,000  Level Anchorage Center
Sun 01:18:43 PM 58.6500 -133.5000 110° East 530 610 35,000  Level Anchorage Center
Sun 01:19:43 PM 58.6167 -133.2333 103° East 520 598 35,000  Level Anchorage Center
Sun 01:22:00 PM 58.5620 -132.9116 108° East  Level FlightAware Approximate
Sun 01:29:00 PM 58.2488 -131.1756 110° East  Level FlightAware Approximate
Sun 01:30:00 PM 58.2015 -130.9306 110° East  Level FlightAware Approximate
Sun 01:31:00 PM 58.1538 -130.6862 110° East  Level FlightAware Approximate
Sun 01:32:00 PM 58.1201 -130.4347 104° East  Level FlightAware Approximate
Sun 01:33:00 PM 58.0858 -130.1838 104° East  Level FlightAware Approximate
Sun 01:34:00 PM 58.0510 -129.9333 105° East  Level FlightAware Approximate
Sun 01:35:00 PM 58.0158 -129.6833 105° East  Level FlightAware Approximate
Sun 01:36:00 PM 57.9801 -129.4338 105° East  Level FlightAware Approximate
Sun 01:37:00 PM 57.9439 -129.1848 105° East  Level FlightAware Approximate
Sun 01:38:00 PM 57.9072 -128.9364 105° East  Level FlightAware Approximate
Sun 01:39:00 PM 57.8700 -128.6884 106° East  Level FlightAware Approximate
Sun 01:40:00 PM 57.8323 -128.4409 106° East  Level FlightAware Approximate
Sun 01:41:00 PM 57.7942 -128.1940 106° East  Level FlightAware Approximate
Sun 01:42:00 PM 57.7555 -127.9476 106° East  Level FlightAware Approximate
Sun 01:43:00 PM 57.7164 -127.7017 106° East  Level FlightAware Approximate
Sun 01:44:00 PM 57.6769 -127.4564 107° East  Level FlightAware Approximate
Sun 01:45:00 PM 57.6368 -127.2115 107° East  Level FlightAware Approximate
Sun 01:46:00 PM 57.5963 -126.9673 107° East  Level FlightAware Approximate
Sun 01:47:00 PM 57.5553 -126.7236 107° East  Level FlightAware Approximate
Sun 01:48:00 PM 57.5138 -126.4804 108° East  Level FlightAware Approximate
Sun 01:49:00 PM 57.4681 -126.2373 110° East  Level FlightAware Approximate
Sun 01:50:00 PM 57.4208 -125.9985 110° East  Level FlightAware Approximate
Sun 01:51:00 PM 57.3730 -125.7602 110° East  Level FlightAware Approximate
Sun 01:51:26 PM 56.9167 -125.2167 111° Southeast 550 633 35,000  Level Edmonton Center
Sun 01:52:00 PM 57.3248 -125.5226 111° Southeast  Level FlightAware Approximate
Sun 01:52:26 PM 56.8500 -124.9833 118° Southeast 530 610 35,000  Level Edmonton Center
Sun 01:53:00 PM 57.2761 -125.2857 111° Southeast  Level FlightAware Approximate
Sun 01:53:26 PM 56.8000 -124.7333 110° East 530 610 35,000  Level Edmonton Center
Sun 01:54:00 PM 57.2270 -125.0493 111° Southeast  Level FlightAware Approximate
Sun 01:54:26 PM 56.7333 -124.4667 114° Southeast 530 610 35,000  Level Edmonton Center
Sun 01:55:00 PM 57.1772 -124.8138 111° Southeast  Level FlightAware Approximate
Sun 01:55:26 PM 56.6667 -124.2500 119° Southeast 530 610 35,000  Level Edmonton Center
Sun 01:56:00 PM 57.1270 -124.5789 111° Southeast  Level FlightAware Approximate
Sun 01:56:26 PM 56.6000 -123.9833 114° Southeast 530 610 35,000  Level Edmonton Center
Sun 01:57:26 PM 56.5333 -123.7667 119° Southeast 520 598 35,000  Level Edmonton Center
Sun 01:58:26 PM 56.4833 -123.5500 113° Southeast 520 598 35,000  Level Edmonton Center
Sun 01:59:26 PM 56.4000 -123.2833 119° Southeast 520 598 35,000  Level Edmonton Center
Sun 02:00:26 PM 56.3500 -123.0667 113° Southeast 520 598 35,000  Level Edmonton Center
Sun 02:01:26 PM 56.2833 -122.8167 116° Southeast 520 598 35,000  Level Edmonton Center
Sun 02:02:26 PM 56.2000 -122.5833 123° Southeast 530 610 35,000  Level Edmonton Center
Sun 02:03:26 PM 56.1333 -122.3333 115° Southeast 530 610 35,000  Level Edmonton Center
Sun 02:04:26 PM 56.0667 -122.0833 115° Southeast 530 610 35,000  Level Edmonton Center
Sun 02:05:26 PM 56.0000 -121.8333 115° Southeast 540 621 35,000  Level Edmonton Center
Sun 02:06:26 PM 55.9333 -121.6167 119° Southeast 540 621 35,000  Level Edmonton Center
Sun 02:07:26 PM 55.8667 -121.4000 119° Southeast 540 621 35,000  Level Edmonton Center
Sun 02:08:26 PM 55.7833 -121.1500 121° Southeast 540 621 35,000  Level Edmonton Center
Sun 02:09:26 PM 55.7333 -120.9167 111° Southeast 540 621 35,000  Level Edmonton Center
Sun 02:10:26 PM 55.6500 -120.6667 120° Southeast 530 610 35,000  Level Edmonton Center
Sun 02:11:26 PM 55.5833 -120.4500 118° Southeast 530 610 35,000  Level Edmonton Center
Sun 02:12:26 PM 55.5167 -120.2000 115° Southeast 530 610 35,000  Level Edmonton Center
Sun 02:13:26 PM 55.4833 -119.9500 103° East 540 621 35,000  Level Edmonton Center
Sun 02:14:26 PM 55.4167 -119.6833 114° Southeast 540 621 35,000  Level Edmonton Center
Sun 02:15:26 PM 55.3667 -119.4167 108° East 540 621 35,000  Level Edmonton Center
Sun 02:16:26 PM 55.3333 -119.2000 105° East 540 621 35,000  Level Edmonton Center
Sun 02:17:26 PM 55.2833 -118.9333 108° East 540 621 35,000  Level Edmonton Center
Sun 02:18:26 PM 55.2333 -118.6667 108° East 540 621 35,000  Level Edmonton Center
Sun 02:19:26 PM 55.1833 -118.4333 110° East 540 621 35,000  Level Edmonton Center
Sun 02:20:26 PM 55.1333 -118.1833 109° East 540 621 35,000  Level Edmonton Center
Sun 02:21:26 PM 55.0833 -117.9333 109° East 540 621 35,000  Level Edmonton Center
Sun 02:22:26 PM 55.0167 -117.6667 113° Southeast 540 621 35,000  Level Edmonton Center
Sun 02:27:57 PM 54.7710 -116.2710 113° Southeast 555 639 35,000  Level FlightAware ADS-B
Sun 02:28:37 PM 54.7300 -116.0840 111° Southeast 556 640 35,000  Level FlightAware ADS-B
Sun 02:29:17 PM 54.6950 -115.9230 111° Southeast 557 641 35,000  Level FlightAware ADS-B
Sun 02:30:02 PM 54.6570 -115.7510 111° Southeast 553 636 35,000  Level FlightAware ADS-B
Sun 02:30:37 PM 54.6240 -115.6050 111° Southeast 553 636 35,000  Level FlightAware ADS-B
Sun 02:31:17 PM 54.5830 -115.4230 111° Southeast 555 639 35,000  Level FlightAware ADS-B
Sun 02:32:12 PM 54.5390 -115.2230 111° Southeast 555 639 35,000  Level FlightAware ADS-B
Sun 02:33:52 PM 54.4410 -114.7990 112° Southeast 561 646 35,000  Level FlightAware ADS-B
Sun 02:35:07 PM 54.3710 -114.5040 112° Southeast 559 643 35,000  Level FlightAware ADS-B
Sun 02:36:17 PM 54.3000 -114.2050 112° Southeast 559 643 35,000  Level FlightAware ADS-B
Sun 02:37:27 PM 54.2310 -113.9180 112° Southeast 559 643 35,000  Level FlightAware ADS-B
Sun 02:38:37 PM 54.1620 -113.6340 112° Southeast 555 639 35,000  Level FlightAware ADS-B
Sun 02:39:57 PM 54.0820 -113.3100 113° Southeast 553 636 35,000  Level FlightAware ADS-B
Sun 02:41:02 PM 54.0170 -113.0500 113° Southeast 553 636 35,000  Level FlightAware ADS-B
Sun 02:42:22 PM 53.9360 -112.7320 113° Southeast 551 634 35,000  Level FlightAware ADS-B
Sun 02:43:32 PM 53.8650 -112.4560 113° Southeast 550 633 35,000  Level FlightAware ADS-B
Sun 02:44:42 PM 53.7940 -112.1810 114° Southeast 551 634 35,000  Level FlightAware ADS-B
Sun 02:45:52 PM 53.7200 -111.9030 114° Southeast 551 634 35,000  Level FlightAware ADS-B
Sun 02:47:17 PM 53.6310 -111.5680 114° Southeast 554 638 35,000  Level FlightAware ADS-B
Sun 02:47:57 PM 53.5880 -111.4100 115° Southeast 554 638 35,000  Level FlightAware ADS-B
Sun 02:48:42 PM 53.5430 -111.2430 114° Southeast 554 638 35,000  Level FlightAware ADS-B
Sun 02:49:17 PM 53.5040 -111.0980 114° Southeast 554 638 35,000  Level FlightAware ADS-B
Sun 02:50:07 PM 53.4500 -110.9050 115° Southeast 550 633 35,000  Level FlightAware ADS-B
Sun 02:50:42 PM 53.4140 -110.7720 114° Southeast 550 633 35,000  Level FlightAware ADS-B
Sun 02:51:22 PM 53.3790 -110.6390 114° Southeast 550 633 35,000  Level FlightAware ADS-B
Sun 02:52:12 PM 53.3350 -110.4740 114° Southeast 550 633 35,000  Level FlightAware ADS-B
Sun 02:52:52 PM 53.2990 -110.3410 114° Southeast 550 633 35,000  Level FlightAware ADS-B
Sun 02:53:32 PM 53.2640 -110.2090 114° Southeast 550 633 35,000  Level FlightAware ADS-B
Sun 02:54:12 PM 53.2290 -110.0770 114° Southeast 550 633 35,000  Level FlightAware ADS-B
Sun 02:54:52 PM 53.1940 -109.9450 114° Southeast 550 633 35,000  Level FlightAware ADS-B
Sun 02:55:42 PM 53.1500 -109.7800 114° Southeast 550 633 35,000  Level FlightAware ADS-B
Sun 02:56:22 PM 53.1150 -109.6480 114° Southeast 550 633 35,000  Level FlightAware ADS-B
Sun 02:57:02 PM 53.0790 -109.5170 115° Southeast 550 633 35,000  Level FlightAware ADS-B
Sun 02:57:42 PM 53.0440 -109.3850 114° Southeast 550 633 35,000  Level FlightAware ADS-B
Sun 02:58:22 PM 53.0090 -109.2540 114° Southeast 550 633 35,000  Level FlightAware ADS-B
Sun 02:59:12 PM 52.9650 -109.0900 114° Southeast 550 633 35,000  Level FlightAware ADS-B
Sun 02:59:52 PM 52.9300 -108.9590 114° Southeast 550 633 35,000  Level FlightAware ADS-B
Sun 03:00:26 PM 52.7333 -108.5667 114° Southeast 540 621 35,000  Level Edmonton Center
Sun 03:00:45 PM 52.7167 -108.5167 119° Southeast 550 633 35,000  Level Winnipeg Center
Sun 03:01:45 PM 52.6500 -108.2833 115° Southeast 540 621 35,000  Level Winnipeg Center
Sun 03:02:45 PM 52.5833 -108.0667 117° Southeast 540 621 35,000  Level Winnipeg Center
Sun 03:03:45 PM 52.5333 -107.8667 112° Southeast 540 621 35,000  Level Winnipeg Center
Sun 03:04:45 PM 52.4500 -107.6500 122° Southeast 540 621 35,000  Level Winnipeg Center
Sun 03:05:45 PM 52.3833 -107.4167 115° Southeast 540 621 35,000  Level Winnipeg Center
Sun 03:06:45 PM 52.3167 -107.2000 117° Southeast 540 621 35,000  Level Winnipeg Center
Sun 03:07:45 PM 52.2333 -106.9667 120° Southeast 540 621 35,000  Level Winnipeg Center
Sun 03:08:45 PM 52.1667 -106.7500 117° Southeast 550 633 35,000  Level Winnipeg Center
Sun 03:10:26 PM 52.0667 -106.3333 111° Southeast 540 621 35,000  Level Edmonton Center
Sun 03:10:45 PM 52.0667 -106.3000 90° East 550 633 35,000  Level Winnipeg Center
Sun 03:11:45 PM 52.0167 -106.0333 107° East 540 621 35,000  Level Winnipeg Center
Sun 03:12:45 PM 51.9833 -105.8167 104° East 540 621 35,000  Level Winnipeg Center
Sun 03:13:45 PM 51.9333 -105.5833 109° East 540 621 35,000  Level Winnipeg Center
Sun 03:14:45 PM 51.8833 -105.3667 110° East 540 621 35,000  Level Winnipeg Center
Sun 03:20:42 PM 51.6260 -104.0410 110° East 529 609 35,000  Level FlightAware ADS-B
Sun 03:21:27 PM 51.5830 -103.8470 110° East 530 610 35,000  Level FlightAware ADS-B
Sun 03:22:12 PM 51.5510 -103.7010 109° East 530 610 35,000  Level FlightAware ADS-B
Sun 03:22:52 PM 51.5240 -103.5740 109° East 530 610 35,000  Level FlightAware ADS-B
Sun 03:23:42 PM 51.4900 -103.4160 109° East 530 610 35,000  Level FlightAware ADS-B
Sun 03:24:22 PM 51.4630 -103.2900 109° East 530 610 35,000  Level FlightAware ADS-B
Sun 03:25:02 PM 51.4360 -103.1630 109° East 530 610 35,000  Level FlightAware ADS-B
Sun 03:25:42 PM 51.4090 -103.0370 109° East 530 610 35,000  Level FlightAware ADS-B
Sun 03:26:22 PM 51.3820 -102.9100 109° East 530 610 35,000  Level FlightAware ADS-B
Sun 03:27:12 PM 51.3480 -102.7520 109° East 530 610 35,000  Level FlightAware ADS-B
Sun 03:27:52 PM 51.3210 -102.6260 109° East 530 610 35,000  Level FlightAware ADS-B
Sun 03:28:32 PM 51.2930 -102.5000 110° East 530 610 35,000  Level FlightAware ADS-B
Sun 03:29:12 PM 51.2660 -102.3740 109° East 530 610 35,000  Level FlightAware ADS-B
Sun 03:29:52 PM 51.2390 -102.2480 109° East 530 610 35,000  Level FlightAware ADS-B
Sun 03:30:42 PM 51.2050 -102.0910 109° East 530 610 35,000  Level FlightAware ADS-B
Sun 03:31:22 PM 51.1780 -101.9650 109° East 530 610 35,000  Level FlightAware ADS-B
Sun 03:34:07 PM 50.9710 -101.0850 110° East 520 598 35,000  Level FlightAware ADS-B
Sun 03:34:52 PM 50.9370 -100.9310 109° East 522 601 35,000  Level FlightAware ADS-B
Sun 03:35:32 PM 50.9020 -100.7760 110° East 522 601 35,000  Level FlightAware ADS-B
Sun 03:36:17 PM 50.8680 -100.6230 109° East 524 603 35,000  Level FlightAware ADS-B
Sun 03:36:57 PM 50.8340 -100.4730 110° East 525 604 35,000  Level FlightAware ADS-B
Sun 03:37:42 PM 50.7980 -100.3120 109° East 525 604 35,000  Level FlightAware ADS-B
Sun 03:38:22 PM 50.7640 -100.1630 110° East 525 604 35,000  Level FlightAware ADS-B
Sun 03:39:02 PM 50.7310 -100.0190 110° East 524 603 35,000  Level FlightAware ADS-B
Sun 03:39:47 PM 50.6940 -99.8590 110° East 525 604 35,000  Level FlightAware ADS-B
Sun 03:40:27 PM 50.6600 -99.7150 110° East 525 604 35,000  Level FlightAware ADS-B
Sun 03:41:12 PM 50.6220 -99.5530 110° East 526 605 35,000  Level FlightAware ADS-B
Sun 03:41:52 PM 50.5880 -99.4120 111° Southeast 526 605 35,000  Level FlightAware ADS-B
Sun 03:42:32 PM 50.5540 -99.2650 110° East 526 605 35,000  Level FlightAware ADS-B
Sun 03:43:17 PM 50.5160 -99.1080 111° Southeast 525 604 35,000  Level FlightAware ADS-B
Sun 03:43:57 PM 50.4820 -98.9680 111° Southeast 526 605 35,000  Level FlightAware ADS-B
Sun 03:44:42 PM 50.4420 -98.8030 111° Southeast 525 604 35,000  Level FlightAware ADS-B
Sun 03:45:22 PM 50.4040 -98.6640 113° Southeast 524 603 35,000  Level FlightAware ADS-B
Sun 03:46:02 PM 50.3600 -98.5270 117° Southeast 522 601 35,000  Level FlightAware ADS-B
Sun 03:46:47 PM 50.3120 -98.3820 117° Southeast 524 603 35,000  Level FlightAware ADS-B
Sun 03:47:27 PM 50.2670 -98.2480 118° Southeast 523 602 35,000  Level FlightAware ADS-B
Sun 03:48:07 PM 50.2220 -98.1120 117° Southeast 524 603 35,000  Level FlightAware ADS-B
Sun 03:48:42 PM 50.1870 -98.0080 118° Southeast 526 605 35,000 847 Level FlightAware ADS-B
Sun 03:49:32 PM 50.1270 -97.8280 117° Southeast 526 605 36,200 1,200 Climbing FlightAware ADS-B
Sun 03:50:17 PM 50.0770 -97.6780 117° Southeast 528 608 36,900 565 Climbing FlightAware ADS-B
Sun 03:50:57 PM 50.0330 -97.5470 118° Southeast 529 609 37,000 75 Climbing FlightAware ADS-B
Sun 03:51:37 PM 49.9850 -97.4060 118° Southeast 529 609 37,000  Level FlightAware ADS-B
Sun 03:52:22 PM 49.9320 -97.2590 119° Southeast 525 604 37,000  Level FlightAware ADS-B
Sun 03:54:22 PM 49.7550 -96.9330 130° Southeast 512 589 37,000  Level FlightAware ADS-B
Sun 03:56:07 PM 49.5910 -96.6460 131° Southeast 511 588 37,000  Level FlightAware ADS-B
Sun 03:56:47 PM 49.5310 -96.5420 132° Southeast 512 589 37,000  Level FlightAware ADS-B
Sun 03:57:27 PM 49.4600 -96.4200 132° Southeast 515 593 37,000  Level FlightAware ADS-B
Sun 03:58:07 PM 49.4010 -96.3170 131° Southeast 518 596 37,000  Level FlightAware ADS-B
Sun 03:58:52 PM 49.3210 -96.1800 132° Southeast 520 598 37,000  Level FlightAware ADS-B
Sun 03:59:37 PM 49.2520 -96.0620 132° Southeast 519 597 37,000  Level FlightAware ADS-B
Sun 04:00:12 PM 49.2000 -95.9710 131° Southeast 519 597 37,000  Level FlightAware ADS-B
Sun 04:01:02 PM 49.1160 -95.8320 133° Southeast 518 596 37,000  Level FlightAware ADS-B
Sun 04:01:42 PM 49.0510 -95.7230 132° Southeast 518 596 37,000  Level FlightAware ADS-B
Sun 04:02:22 PM 48.9920 -95.6220 132° Southeast 518 596 37,000  Level FlightAware ADS-B
Sun 04:03:02 PM 48.9260 -95.5120 132° Southeast 517 595 37,000  Level FlightAware ADS-B
Sun 04:03:37 PM 48.8690 -95.4190 133° Southeast 516 594 37,000  Level FlightAware ADS-B
Sun 04:04:22 PM 48.8040 -95.3090 132° Southeast 516 594 37,000  Level FlightAware ADS-B
Sun 04:05:12 PM 48.7360 -95.1940 132° Southeast 516 594 37,000  Level FlightAware ADS-B
Sun 04:05:52 PM 48.6820 -95.1030 132° Southeast 516 594 37,000  Level FlightAware ADS-B
Sun 04:06:37 PM 48.5720 -94.9290 134° Southeast 519 597 37,000  Level FlightAware ADS-B
Sun 04:07:17 PM 48.5140 -94.8330 132° Southeast 519 597 37,000  Level FlightAware ADS-B
Sun 04:07:57 PM 48.4590 -94.7420 132° Southeast 519 597 37,000  Level FlightAware ADS-B
Sun 04:08:37 PM 48.4040 -94.6500 132° Southeast 519 597 37,000  Level FlightAware ADS-B
Sun 04:09:17 PM 48.3500 -94.5590 132° Southeast 519 597 37,000  Level FlightAware ADS-B
Sun 04:10:07 PM 48.2820 -94.4450 132° Southeast 519 597 37,000  Level FlightAware ADS-B
Sun 04:10:47 PM 48.1680 -94.2800 136° Southeast 515 593 37,000  Level FlightAware ADS-B
Sun 04:11:27 PM 48.1010 -94.1730 133° Southeast 515 593 37,000  Level FlightAware ADS-B
Sun 04:12:12 PM 48.0270 -94.0560 133° Southeast 515 593 37,000  Level FlightAware ADS-B
Sun 04:12:52 PM 47.9600 -93.9520 134° Southeast 517 595 37,000  Level FlightAware ADS-B
Sun 04:13:37 PM 47.8880 -93.8390 134° Southeast 517 595 37,000  Level FlightAware ADS-B
Sun 04:14:17 PM 47.8210 -93.7350 134° Southeast 517 595 37,000  Level FlightAware ADS-B
Sun 04:14:57 PM 47.7560 -93.6340 134° Southeast 517 595 37,000  Level FlightAware ADS-B
Sun 04:15:42 PM 47.6810 -93.5160 133° Southeast 519 597 37,000  Level FlightAware ADS-B
Sun 04:16:22 PM 47.6120 -93.4110 134° Southeast 520 598 37,000  Level FlightAware ADS-B
Sun 04:17:02 PM 47.5470 -93.3110 134° Southeast 519 597 37,000  Level FlightAware ADS-B
Sun 04:17:47 PM 47.4750 -93.2000 134° Southeast 517 595 37,000  Level FlightAware ADS-B
Sun 04:18:27 PM 47.4070 -93.0980 135° Southeast 515 593 37,000  Level FlightAware ADS-B
Sun 04:19:12 PM 47.3310 -92.9840 135° Southeast 514 592 37,000  Level FlightAware ADS-B
Sun 04:19:52 PM 47.2640 -92.8850 135° Southeast 513 590 37,000  Level FlightAware ADS-B
Sun 04:20:32 PM 47.1970 -92.7850 135° Southeast 511 588 37,000  Level FlightAware ADS-B
Sun 04:21:17 PM 47.1250 -92.6770 134° Southeast 509 586 37,000  Level FlightAware ADS-B
Sun 04:21:57 PM 47.0580 -92.5780 135° Southeast 506 582 37,000  Level FlightAware ADS-B
Sun 04:22:42 PM 46.9830 -92.4670 135° Southeast 507 583 37,000  Level FlightAware ADS-B
Sun 04:23:22 PM 46.9200 -92.3740 135° Southeast 507 583 37,000  Level FlightAware ADS-B
Sun 04:24:07 PM 46.8440 -92.2630 135° Southeast 511 588 37,000  Level FlightAware ADS-B
Sun 04:24:52 PM 46.7580 -92.1720 144° Southeast 502 578 37,000  Level FlightAware ADS-B
Sun 04:25:32 PM 46.6760 -92.1020 150° Southeast 501 577 37,000  Level FlightAware ADS-B
Sun 04:26:12 PM 46.5970 -92.0370 151° Southeast 502 578 37,000  Level FlightAware ADS-B
Sun 04:26:57 PM 46.5060 -91.9650 151° Southeast 502 578 37,000  Level FlightAware ADS-B
Sun 04:27:37 PM 46.4250 -91.9010 151° Southeast 504 580 37,000  Level FlightAware ADS-B
Sun 04:28:17 PM 46.3430 -91.8370 152° Southeast 506 582 37,000  Level FlightAware ADS-B
Sun 04:29:02 PM 46.2490 -91.7640 152° Southeast 505 581 37,000  Level FlightAware ADS-B
Sun 04:29:42 PM 46.1660 -91.7000 152° Southeast 504 580 37,000  Level FlightAware ADS-B
Sun 04:30:22 PM 46.0830 -91.6350 151° Southeast 504 580 37,000  Level FlightAware ADS-B
Sun 04:31:07 PM 45.9940 -91.5660 152° Southeast 504 580 37,000  Level FlightAware ADS-B
Sun 04:31:47 PM 45.9120 -91.5030 152° Southeast 505 581 37,000  Level FlightAware ADS-B
Sun 04:32:32 PM 45.8160 -91.4290 152° Southeast 506 582 37,000  Level FlightAware ADS-B
Sun 04:33:12 PM 45.7370 -91.3680 152° Southeast 507 583 37,000  Level FlightAware ADS-B
Sun 04:33:52 PM 45.6530 -91.3040 152° Southeast 508 585 37,000  Level FlightAware ADS-B
Sun 04:34:37 PM 45.5580 -91.2310 152° Southeast 510 587 37,000  Level FlightAware ADS-B
Sun 04:35:17 PM 45.4740 -91.1670 152° Southeast 512 589 37,000  Level FlightAware ADS-B
Sun 04:36:02 PM 45.3820 -91.0970 152° Southeast 513 590 37,000  Level FlightAware ADS-B
Sun 04:36:42 PM 45.2990 -91.0350 152° Southeast 513 590 37,000 -847 Level FlightAware ADS-B
Sun 04:37:27 PM 45.2050 -90.9640 152° Southeast 510 587 35,800 -2,188 Descending FlightAware ADS-B
Sun 04:38:07 PM 45.1190 -90.9000 152° Southeast 511 588 33,900 -2,550 Descending FlightAware ADS-B
Sun 04:38:47 PM 45.0410 -90.8420 152° Southeast 502 578 32,400 -2,047 Descending FlightAware ADS-B
Sun 04:39:32 PM 44.9480 -90.7730 152° Southeast 490 564 31,000 -988 Descending FlightAware ADS-B
Sun 04:40:12 PM 44.8700 -90.7150 152° Southeast 488 562 31,000  Level FlightAware ADS-B
Sun 04:40:52 PM 44.7880 -90.6540 152° Southeast 488 562 31,000  Level FlightAware ADS-B
Sun 04:41:37 PM 44.7010 -90.5900 152° Southeast 488 562 31,000  Level FlightAware ADS-B
Sun 04:42:17 PM 44.6190 -90.5310 153° Southeast 488 562 31,000  Level FlightAware ADS-B
Sun 04:42:52 PM 44.5510 -90.4800 152° Southeast 488 562 31,000  Level FlightAware ADS-B
Sun 04:43:37 PM 44.4580 -90.4120 152° Southeast 487 560 31,000  Level FlightAware ADS-B
Sun 04:44:22 PM 44.3700 -90.3480 153° Southeast 486 559 31,000  Level FlightAware ADS-B
Sun 04:45:02 PM 44.2900 -90.2900 153° Southeast 487 560 31,000  Level FlightAware ADS-B
Sun 04:45:47 PM 44.2020 -90.2270 153° Southeast 490 564 31,000  Level FlightAware ADS-B
Sun 04:46:27 PM 44.1190 -90.1670 153° Southeast 489 563 31,000  Level FlightAware ADS-B
Sun 04:47:07 PM 44.0340 -90.1070 153° Southeast 490 564 31,000  Level FlightAware ADS-B
Sun 04:47:47 PM 43.9530 -90.0480 152° Southeast 491 565 31,000  Level FlightAware ADS-B
Sun 04:48:32 PM 43.8650 -89.9860 153° Southeast 492 566 31,000 -353 Level FlightAware ADS-B
Sun 04:49:12 PM 43.7840 -89.9280 153° Southeast 484 557 30,500 -1,059 Descending FlightAware ADS-B
Sun 04:49:57 PM 43.6940 -89.8650 153° Southeast 476 548 29,500 -1,333 Descending FlightAware ADS-B
Sun 04:50:42 PM 43.6090 -89.8040 153° Southeast 467 537 28,500 -1,694 Descending FlightAware ADS-B
Sun 04:51:22 PM 43.5300 -89.7450 152° Southeast 459 528 27,100 -1,950 Descending FlightAware ADS-B
Sun 04:52:02 PM 43.4660 -89.6830 145° Southeast 450 518 25,900 -1,906 Descending FlightAware ADS-B
Sun 04:52:47 PM 43.3940 -89.5980 139° Southeast 441 507 24,400 -2,000 Descending FlightAware ADS-B
Sun 04:53:32 PM 43.3240 -89.5220 142° Southeast 431 496 22,900 -1,976 Descending FlightAware ADS-B
Sun 04:54:12 PM 43.2610 -89.4580 143° Southeast 422 486 21,600 -1,950 Descending FlightAware ADS-B
Sun 04:54:52 PM 43.1970 -89.3930 143° Southeast 415 478 20,300 -1,906 Descending FlightAware ADS-B
Sun 04:55:37 PM 43.1230 -89.3350 150° Southeast 403 464 18,900 -1,906 Descending FlightAware ADS-B
Sun 04:56:17 PM 43.0520 -89.3060 163° South 395 455 17,600 -1,875 Descending FlightAware ADS-B
Sun 04:56:57 PM 42.9820 -89.2730 161° South 388 447 16,400 -1,800 Descending FlightAware ADS-B
Sun 04:57:37 PM 42.9160 -89.2450 163° South 385 443 15,200 -1,765 Descending FlightAware ADS-B
Sun 04:58:22 PM 42.8410 -89.2150 164° South 382 440 13,900 -1,333 Descending FlightAware ADS-B
Sun 04:59:07 PM 42.7780 -89.1480 142° Southeast 373 429 13,200 -565 Descending FlightAware ADS-B
Sun 04:59:47 PM 42.7340 -89.0750 129° Southeast 363 418 13,100 -71 Descending FlightAware ADS-B
Sun 05:00:32 PM 42.6870 -88.9990 130° Southeast 367 422 13,100  Level FlightAware ADS-B
Sun 05:01:12 PM 42.6430 -88.9290 131° Southeast 365 420 13,100 -450 Level FlightAware ADS-B
Sun 05:01:52 PM 42.5990 -88.8580 130° Southeast 361 415 12,500 -918 Descending FlightAware ADS-B
Sun 05:02:37 PM 42.5500 -88.7790 130° Southeast 359 413 11,800 -1,200 Descending FlightAware ADS-B
Sun 05:03:17 PM 42.5090 -88.7130 130° Southeast 353 406 10,800 -1,129 Descending FlightAware ADS-B
Sun 05:04:02 PM 42.4630 -88.6390 130° Southeast 327 376 10,200 -635 Descending FlightAware ADS-B
Sun 05:04:42 PM 42.4260 -88.5800 130° Southeast 301 346 9,900 -771 Descending FlightAware ADS-B
Sun 05:05:12 PM 42.3990 -88.5360 130° Southeast 293 337 9,300 -1,067 Descending FlightAware ADS-B
Sun 05:05:27 PM 42.3890 -88.5100 118° Southeast 293 337 9,100 -300 Descending FlightAware ADS-B
Sun 05:05:52 PM 42.3790 -88.4700 109° East 292 336 9,100 -436 Level FlightAware ADS-B
Sun 05:06:22 PM 42.3660 -88.4170 108° East 290 334 8,700 -982 Descending FlightAware ADS-B
Sun 05:06:47 PM 42.3560 -88.3730 107° East 286 329 8,200 -1,200 Descending FlightAware ADS-B
Sun 05:07:17 PM 42.3350 -88.3270 122° Southeast 282 325 7,600 -1,200 Descending FlightAware ADS-B
Sun 05:07:32 PM 42.3240 -88.3110 133° Southeast 282 325 7,300 -750 Descending FlightAware ADS-B
Sun 05:07:57 PM 42.2970 -88.2790 139° Southeast 286 329 7,100 -300 Descending FlightAware ADS-B
Sun 05:08:12 PM 42.2830 -88.2640 142° Southeast 287 330 7,100  Level FlightAware ADS-B
Sun 05:08:42 PM 42.2540 -88.2310 140° Southeast 286 329 7,100 -218 Level FlightAware ADS-B
Sun 05:09:07 PM 42.2260 -88.2000 141° Southeast 275 316 6,900 -982 Descending FlightAware ADS-B
Sun 05:09:37 PM 42.1980 -88.1680 140° Southeast 263 303 6,200 -1,500 Descending FlightAware ADS-B
Sun 05:10:07 PM 42.1710 -88.1370 140° Southeast 251 289 5,400 -1,418 Descending FlightAware ADS-B
Sun 05:10:32 PM 42.1500 -88.1130 140° Southeast 237 273 4,900 -1,200 Descending FlightAware ADS-B
Sun 05:11:02 PM 42.1260 -88.0860 140° Southeast 225 259 4,300 -1,309 Descending FlightAware ADS-B
Sun 05:11:27 PM 42.1050 -88.0620 140° Southeast 217 250 3,700 -1,200 Descending FlightAware ADS-B
Sun 05:11:57 PM 42.0840 -88.0390 141° Southeast 202 232 3,200 -1,100 Descending FlightAware ADS-B
Sun 05:12:27 PM 42.0630 -88.0150 140° Southeast 182 209 2,600 -1,091 Descending FlightAware ADS-B
Sun 05:12:52 PM 42.0480 -87.9980 140° Southeast 171 197 2,200 -873 Descending FlightAware ADS-B
Sun 05:13:22 PM 42.0300 -87.9780 140° Southeast 167 192 1,800 -873 Descending FlightAware ADS-B
Sun 05:13:47 PM 42.0150 -87.9610 140° Southeast 165 190 1,400 -933 Descending FlightAware ADS-B
Sun 05:14:07 PM 42.0030 -87.9470 139° Southeast 166 191 1,100 -900 Descending FlightAware ADS-B

Login

Don't have an account? Register now (free) for customized features, flight alerts, and more!